createdAt,value
2024-01-20T00:04:18.193Z,22.07
2024-01-20T00:14:46.436Z,22.04
2024-01-20T00:25:14.335Z,22.03
2024-01-20T00:35:44.075Z,22.02
2024-01-20T00:46:11.860Z,22.00
2024-01-20T00:56:39.647Z,21.98
2024-01-20T01:07:07.561Z,21.97
2024-01-20T01:17:35.376Z,21.96
2024-01-20T01:28:03.117Z,21.95
2024-01-20T01:38:30.857Z,21.95
2024-01-20T01:48:59.604Z,21.94
2024-01-20T01:59:27.968Z,21.93
2024-01-20T02:09:55.703Z,21.92
2024-01-20T02:20:24.353Z,21.92
2024-01-20T02:30:52.226Z,21.91
2024-01-20T02:41:19.940Z,21.90
2024-01-20T02:51:47.678Z,21.90
2024-01-20T03:02:15.396Z,21.92
2024-01-20T03:12:43.111Z,21.93
2024-01-20T03:23:10.912Z,21.95
2024-01-20T03:33:38.831Z,21.96
2024-01-20T03:44:06.754Z,21.97
2024-01-20T03:54:34.503Z,21.96
2024-01-20T04:05:02.315Z,21.95
2024-01-20T04:15:30.336Z,21.94
2024-01-20T04:25:58.142Z,21.93
2024-01-20T04:36:25.917Z,21.92
2024-01-20T04:46:53.646Z,21.90
2024-01-20T04:57:21.462Z,21.90
2024-01-20T05:07:49.320Z,21.89
2024-01-20T05:18:17.222Z,21.88
2024-01-20T05:28:45.028Z,21.87
2024-01-20T05:39:12.908Z,21.87
2024-01-20T05:49:40.811Z,21.85
2024-01-20T06:00:11.153Z,21.85
2024-01-20T06:10:38.609Z,21.85
2024-01-20T06:21:06.649Z,21.89
2024-01-20T06:31:34.285Z,21.94
2024-01-20T06:42:01.966Z,22.01
2024-01-20T06:52:30.976Z,22.07
2024-01-20T07:02:59.908Z,22.12
2024-01-20T07:13:28.035Z,22.16
2024-01-20T07:23:56.209Z,22.19
2024-01-20T07:34:24.511Z,22.22
2024-01-20T07:44:53.481Z,22.23
2024-01-20T07:55:21.825Z,22.22
2024-01-20T08:05:51.097Z,22.24
2024-01-20T08:16:21.387Z,22.31
2024-01-20T08:26:51.635Z,22.29
2024-01-20T08:37:20.671Z,22.24
2024-01-20T08:47:51.033Z,22.21
2024-01-20T08:58:20.285Z,22.20
2024-01-20T09:08:51.771Z,22.19
2024-01-20T09:19:20.908Z,22.18
2024-01-20T09:29:50.224Z,22.19
2024-01-20T09:40:20.009Z,22.20
2024-01-20T09:50:51.737Z,22.23
2024-01-20T10:01:20.918Z,22.25
2024-01-20T10:11:51.834Z,22.26
2024-01-20T10:22:22.300Z,22.30
2024-01-20T10:33:04.199Z,22.40
2024-01-20T10:43:51.417Z,22.52
2024-01-20T10:54:22.319Z,22.64
2024-01-20T11:04:55.285Z,22.74
2024-01-20T11:15:24.366Z,22.83
2024-01-20T11:25:55.150Z,22.93
2024-01-20T11:36:24.595Z,23.04
2024-01-20T11:46:53.560Z,23.15
2024-01-20T11:57:28.977Z,23.29
2024-01-20T12:08:00.649Z,23.40
2024-01-20T12:18:31.575Z,23.51
2024-01-20T12:29:01.570Z,23.62
2024-01-20T12:39:32.614Z,23.71
2024-01-20T12:50:07.536Z,23.80
2024-01-20T13:00:37.739Z,23.89
2024-01-20T13:11:10.627Z,23.96
2024-01-20T13:21:52.488Z,24.03
2024-01-20T13:32:21.107Z,24.08
2024-01-20T13:42:49.221Z,24.13
2024-01-20T13:53:16.873Z,24.17
2024-01-20T14:03:44.703Z,24.17
2024-01-20T14:14:29.526Z,24.16
2024-01-20T14:25:03.129Z,24.10
2024-01-20T14:35:30.655Z,24.04
2024-01-20T14:45:58.533Z,23.97
2024-01-20T14:56:30.154Z,23.91
2024-01-20T15:06:58.958Z,23.84
2024-01-20T15:17:43.752Z,23.76
2024-01-20T15:28:12.514Z,23.69
2024-01-20T15:38:59.952Z,23.65
2024-01-20T15:49:28.030Z,23.59
2024-01-20T15:59:58.480Z,23.54
2024-01-20T16:10:26.332Z,23.48
2024-01-20T16:20:54.298Z,23.42
2024-01-20T16:31:32.813Z,23.38
2024-01-20T16:42:01.258Z,23.34
2024-01-20T16:52:29.055Z,23.30
2024-01-20T17:02:57.426Z,23.26
2024-01-20T17:13:25.401Z,23.24
2024-01-20T17:23:53.368Z,23.21
2024-01-20T17:34:24.101Z,23.18
2024-01-20T17:44:51.949Z,23.16
2024-01-20T17:55:20.046Z,23.14
2024-01-20T18:05:48.089Z,23.12
2024-01-20T18:16:16.038Z,23.10
2024-01-20T18:26:43.867Z,23.07
2024-01-20T18:37:11.771Z,23.04
2024-01-20T18:47:41.473Z,23.02
2024-01-20T18:58:09.087Z,23.01
2024-01-20T19:08:38.463Z,22.99
2024-01-20T19:19:07.485Z,22.97
2024-01-20T19:29:36.195Z,22.97
2024-01-20T19:40:04.526Z,22.98
2024-01-20T19:50:32.504Z,23.00
2024-01-20T20:01:00.385Z,23.01
2024-01-20T20:11:28.183Z,22.99
2024-01-20T20:21:56.030Z,22.98
2024-01-20T20:32:24.145Z,23.00
2024-01-20T20:42:52.076Z,23.01
2024-01-20T20:53:19.984Z,23.04
2024-01-20T21:03:48.169Z,23.04
2024-01-20T21:14:16.166Z,23.04
2024-01-20T21:24:44.038Z,23.03
2024-01-20T21:35:12.185Z,23.01
2024-01-20T21:45:40.003Z,23.01
2024-01-20T21:56:08.672Z,23.03
2024-01-20T22:06:36.436Z,23.04
2024-01-20T22:17:04.321Z,23.06
2024-01-20T22:27:32.162Z,23.06
2024-01-20T22:38:00.773Z,23.04
2024-01-20T22:48:33.455Z,23.05
2024-01-20T22:59:01.347Z,23.04
2024-01-20T23:09:29.216Z,23.02
2024-01-20T23:19:57.005Z,22.99
2024-01-20T23:30:27.474Z,22.96
2024-01-20T23:40:55.260Z,22.93
2024-01-20T23:51:23.034Z,22.91
